Time;durP1;ratioP1;P1;durP2;ratioP2;P2;SDS_P1;SDS_P2;PMS_P1;PMS_P2;Temp;Humidity;BMP_temperature;BMP_pressure;BME280_temperature;BME280_humidity;BME280_pressure;Samples;Min_cycle;Max_cycle;Signal;HPM_P1;HPM_P2
2022/03/26 00:00:25;;;;;;;;;;;19.20;49.50;;;;;;4979094;28;19918;-52
2022/03/26 00:02:51;;;;;;;;;;;19.20;49.50;;;;;;4981265;28;19957;-56
2022/03/26 00:05:17;;;;;;;;;;;19.30;49.50;;;;;;4963800;28;20339;-54
2022/03/26 00:07:42;;;;;;;;;;;19.20;49.40;;;;;;4963275;28;20059;-57
2022/03/26 00:10:08;;;;;;;;;;;19.30;49.30;;;;;;4980696;28;19914;-52
2022/03/26 00:12:33;;;;;;;;;;;19.20;49.40;;;;;;4981327;28;20393;-56
2022/03/26 00:14:59;;;;;;;;;;;19.20;49.50;;;;;;4980838;28;20127;-58
2022/03/26 00:17:25;;;;;;;;;;;19.20;49.50;;;;;;4980740;28;19918;-55
2022/03/26 00:19:50;;;;;;;;;;;19.20;49.40;;;;;;4980307;28;19921;-55
2022/03/26 00:22:16;;;;;;;;;;;19.20;49.50;;;;;;4981565;28;20375;-57
2022/03/26 00:24:41;;;;;;;;;;;19.20;49.50;;;;;;4980324;28;19928;-57
2022/03/26 00:27:07;;;;;;;;;;;19.10;49.40;;;;;;4963167;28;19914;-58
2022/03/26 00:29:33;;;;;;;;;;;19.20;49.40;;;;;;4979838;28;19922;-56
2022/03/26 00:31:58;;;;;;;;;;;19.20;49.30;;;;;;4980596;28;19918;-58
2022/03/26 00:34:24;;;;;;;;;;;19.20;49.30;;;;;;4979958;28;20032;-57
2022/03/26 00:36:49;;;;;;;;;;;19.20;49.30;;;;;;4980652;28;19972;-58
2022/03/26 00:39:15;;;;;;;;;;;19.20;49.30;;;;;;4962678;28;19918;-57
2022/03/26 00:41:41;;;;;;;;;;;19.10;49.30;;;;;;4980134;28;19914;-58
2022/03/26 00:44:06;;;;;;;;;;;19.10;49.30;;;;;;4980350;28;19913;-58
2022/03/26 00:46:32;;;;;;;;;;;19.10;49.30;;;;;;4980333;28;20554;-58
2022/03/26 00:48:58;;;;;;;;;;;19.10;49.30;;;;;;4979361;28;19925;-58
2022/03/26 00:51:24;;;;;;;;;;;19.10;49.40;;;;;;4980847;28;19914;-55
2022/03/26 00:53:49;;;;;;;;;;;19.10;49.40;;;;;;4963423;28;19914;-55
2022/03/26 00:56:15;;;;;;;;;;;19.10;49.30;;;;;;4980027;28;20467;-56
2022/03/26 00:58:41;;;;;;;;;;;19.10;49.30;;;;;;4975464;28;19977;-56
2022/03/26 01:01:07;;;;;;;;;;;19.10;49.30;;;;;;4977749;28;19925;-55
2022/03/26 01:03:33;;;;;;;;;;;19.20;49.20;;;;;;4975641;28;20025;-55
2022/03/26 01:05:58;;;;;;;;;;;19.10;49.20;;;;;;4975080;28;20178;-57
2022/03/26 01:08:24;;;;;;;;;;;19.20;49.20;;;;;;4974664;28;19964;-57
2022/03/26 01:10:49;;;;;;;;;;;19.10;49.30;;;;;;4984640;28;19914;-54
2022/03/26 01:13:15;;;;;;;;;;;19.10;49.30;;;;;;4975667;28;20559;-54
2022/03/26 01:15:40;;;;;;;;;;;19.20;49.30;;;;;;4979911;28;20633;-55
2022/03/26 01:18:06;;;;;;;;;;;19.10;49.30;;;;;;4979332;28;19925;-56
2022/03/26 01:20:31;;;;;;;;;;;19.10;49.30;;;;;;4979412;28;19914;-54
2022/03/26 01:22:57;;;;;;;;;;;19.10;49.30;;;;;;4979999;28;19914;-57
2022/03/26 01:25:24;;;;;;;;;;;19.00;49.40;;;;;;4980103;28;19918;-56
2022/03/26 01:27:49;;;;;;;;;;;19.00;49.40;;;;;;4980431;28;20003;-57
2022/03/26 01:30:15;;;;;;;;;;;19.00;49.40;;;;;;4980087;28;20390;-56
2022/03/26 01:32:43;;;;;;;;;;;19.10;49.30;;;;;;4974656;28;19913;-57
2022/03/26 01:35:08;;;;;;;;;;;19.00;49.30;;;;;;4980238;28;19921;-54
2022/03/26 01:37:34;;;;;;;;;;;19.00;49.30;;;;;;4978990;28;20053;-55
2022/03/26 01:39:59;;;;;;;;;;;19.00;49.30;;;;;;4979467;28;20235;-53
2022/03/26 01:42:25;;;;;;;;;;;19.00;49.60;;;;;;4978075;28;20426;-57
2022/03/26 01:44:50;;;;;;;;;;;19.00;49.30;;;;;;4979560;28;19918;-54
2022/03/26 01:47:17;;;;;;;;;;;18.90;49.30;;;;;;4980438;28;19914;-55
2022/03/26 01:49:42;;;;;;;;;;;19.00;49.40;;;;;;4976958;28;19914;-53
2022/03/26 01:52:10;;;;;;;;;;;19.00;49.40;;;;;;4979666;28;19914;-56
2022/03/26 01:54:37;;;;;;;;;;;18.90;49.40;;;;;;4979183;28;19964;-57
2022/03/26 01:57:02;;;;;;;;;;;19.00;49.30;;;;;;4945756;28;20370;-56
2022/03/26 01:59:28;;;;;;;;;;;19.00;49.40;;;;;;4980396;28;19992;-56
2022/03/26 02:01:53;;;;;;;;;;;18.90;50.00;;;;;;4983554;28;19917;-56
2022/03/26 02:04:19;;;;;;;;;;;18.90;49.50;;;;;;4981643;28;19937;-57
2022/03/26 02:06:44;;;;;;;;;;;18.90;49.40;;;;;;4984266;28;19914;-57
2022/03/26 02:09:10;;;;;;;;;;;18.90;49.30;;;;;;4953984;28;19921;-53
2022/03/26 02:11:37;;;;;;;;;;;18.90;49.40;;;;;;4982172;28;19972;-54
2022/03/26 02:14:03;;;;;;;;;;;18.90;49.30;;;;;;4980833;28;19917;-56
2022/03/26 02:16:28;;;;;;;;;;;18.90;49.40;;;;;;4982919;28;19918;-55
2022/03/26 02:18:54;;;;;;;;;;;18.90;49.40;;;;;;4982085;28;19967;-53
2022/03/26 02:21:20;;;;;;;;;;;18.90;49.40;;;;;;4983654;28;19914;-55
2022/03/26 02:23:45;;;;;;;;;;;18.90;49.30;;;;;;4982025;28;20402;-54
2022/03/26 02:26:13;;;;;;;;;;;18.90;49.40;;;;;;4982796;28;19914;-54
2022/03/26 02:28:38;;;;;;;;;;;19.00;49.30;;;;;;4980873;28;19914;-57
2022/03/26 02:31:04;;;;;;;;;;;18.80;49.40;;;;;;4983070;28;19921;-57
2022/03/26 02:33:29;;;;;;;;;;;18.90;49.20;;;;;;4972183;28;20020;-55
2022/03/26 02:35:55;;;;;;;;;;;18.90;49.40;;;;;;4981739;28;19937;-57
2022/03/26 02:38:23;;;;;;;;;;;18.80;49.30;;;;;;4980541;28;19993;-56
2022/03/26 02:40:48;;;;;;;;;;;18.90;49.40;;;;;;4983062;28;19918;-58
2022/03/26 02:43:13;;;;;;;;;;;18.90;49.20;;;;;;4981930;28;20381;-57
2022/03/26 02:45:45;;;;;;;;;;;18.90;49.20;;;;;;4983076;28;19914;-58
2022/03/26 02:48:12;;;;;;;;;;;18.80;49.20;;;;;;4981197;28;19921;-57
2022/03/26 02:50:39;;;;;;;;;;;18.90;49.20;;;;;;4964884;28;19925;-58
2022/03/26 02:53:05;;;;;;;;;;;18.80;49.10;;;;;;4977534;28;19960;-56
2022/03/26 02:55:30;;;;;;;;;;;18.80;49.20;;;;;;4982925;28;19941;-56
2022/03/26 02:57:55;;;;;;;;;;;18.80;49.20;;;;;;4972239;28;20279;-57
2022/03/26 03:00:21;;;;;;;;;;;18.80;49.30;;;;;;4981395;28;19918;-55
2022/03/26 03:02:46;;;;;;;;;;;18.80;49.30;;;;;;4981635;28;19922;-56
2022/03/26 03:05:12;;;;;;;;;;;18.80;49.30;;;;;;4982893;28;19940;-55
2022/03/26 03:07:39;;;;;;;;;;;18.80;49.20;;;;;;4971365;28;19927;-58
2022/03/26 03:10:04;;;;;;;;;;;18.80;49.30;;;;;;4980297;28;19921;-56
2022/03/26 03:12:30;;;;;;;;;;;18.80;49.20;;;;;;4962440;28;19913;-56
2022/03/26 03:14:56;;;;;;;;;;;18.80;49.40;;;;;;4982117;28;19918;-58
2022/03/26 03:17:21;;;;;;;;;;;18.70;49.30;;;;;;4981122;28;19939;-54
2022/03/26 03:19:47;;;;;;;;;;;18.80;49.30;;;;;;4982263;28;19940;-55
2022/03/26 03:22:12;;;;;;;;;;;18.80;49.20;;;;;;4965652;28;19918;-52
2022/03/26 03:24:38;;;;;;;;;;;18.80;49.20;;;;;;4980128;28;19999;-53
2022/03/26 03:27:04;;;;;;;;;;;18.80;49.20;;;;;;4981764;28;20345;-55
2022/03/26 03:29:30;;;;;;;;;;;18.70;49.20;;;;;;4986343;28;19917;-52
2022/03/26 03:31:56;;;;;;;;;;;18.70;49.20;;;;;;4982394;28;19914;-52
2022/03/26 03:34:21;;;;;;;;;;;18.70;49.20;;;;;;4980229;28;19918;-52
2022/03/26 03:36:47;;;;;;;;;;;18.70;49.30;;;;;;4982862;28;19930;-55
2022/03/26 03:39:12;;;;;;;;;;;18.80;49.20;;;;;;4981779;28;20330;-53
2022/03/26 03:41:38;;;;;;;;;;;18.80;49.30;;;;;;4984315;28;19972;-55
2022/03/26 03:44:04;;;;;;;;;;;18.70;49.20;;;;;;4978056;28;20011;-56
2022/03/26 03:46:30;;;;;;;;;;;18.80;49.10;;;;;;4982132;28;19960;-54
2022/03/26 03:48:56;;;;;;;;;;;18.70;49.20;;;;;;4976925;28;20344;-53
2022/03/26 03:51:21;;;;;;;;;;;18.60;49.20;;;;;;4981498;28;19913;-54
2022/03/26 03:53:47;;;;;;;;;;;18.60;49.20;;;;;;4976845;28;19913;-52
2022/03/26 03:56:12;;;;;;;;;;;18.70;49.20;;;;;;4980687;28;20019;-53
2022/03/26 03:58:38;;;;;;;;;;;18.70;49.20;;;;;;4976449;28;20108;-53
2022/03/26 04:01:03;;;;;;;;;;;18.70;49.10;;;;;;4979711;28;19914;-52
2022/03/26 04:03:29;;;;;;;;;;;18.70;49.20;;;;;;4977728;28;19918;-53
2022/03/26 04:05:54;;;;;;;;;;;18.60;49.30;;;;;;4980618;28;20196;-54
2022/03/26 04:08:21;;;;;;;;;;;18.60;49.20;;;;;;4976736;28;19977;-55
2022/03/26 04:10:46;;;;;;;;;;;18.60;49.30;;;;;;4979723;28;19921;-53
2022/03/26 04:13:12;;;;;;;;;;;18.60;49.20;;;;;;4975289;28;19921;-52
2022/03/26 04:15:37;;;;;;;;;;;18.60;49.10;;;;;;4980452;28;19940;-55
2022/03/26 04:18:03;;;;;;;;;;;18.60;49.30;;;;;;4977793;28;19921;-54
2022/03/26 04:20:28;;;;;;;;;;;18.60;49.30;;;;;;4980715;28;19922;-53
2022/03/26 04:22:54;;;;;;;;;;;18.60;49.30;;;;;;4977074;28;19953;-56
2022/03/26 04:25:19;;;;;;;;;;;18.50;49.30;;;;;;4980763;28;19921;-53
2022/03/26 04:27:45;;;;;;;;;;;18.50;49.30;;;;;;4977307;28;19914;-56
2022/03/26 04:30:11;;;;;;;;;;;18.50;49.30;;;;;;4980386;28;19914;-53
2022/03/26 04:32:36;;;;;;;;;;;18.50;49.30;;;;;;4973724;28;20375;-53
2022/03/26 04:35:02;;;;;;;;;;;18.50;49.30;;;;;;4980660;28;19953;-55
2022/03/26 04:37:28;;;;;;;;;;;18.50;49.30;;;;;;4976562;28;19926;-51
2022/03/26 04:39:53;;;;;;;;;;;18.50;49.30;;;;;;4980303;28;19918;-53
2022/03/26 04:42:18;;;;;;;;;;;18.40;49.30;;;;;;4977185;28;19925;-53
2022/03/26 04:44:44;;;;;;;;;;;18.50;49.40;;;;;;4981075;28;20740;-51
2022/03/26 04:47:09;;;;;;;;;;;18.50;49.50;;;;;;4985564;28;19952;-54
2022/03/26 04:49:35;;;;;;;;;;;18.50;49.30;;;;;;4975624;28;19914;-57
2022/03/26 04:52:00;;;;;;;;;;;18.40;49.40;;;;;;4971664;28;20104;-55
2022/03/26 04:54:26;;;;;;;;;;;18.50;49.40;;;;;;4957580;28;20353;-54
2022/03/26 04:56:52;;;;;;;;;;;18.50;49.50;;;;;;4980450;28;19992;-54
2022/03/26 04:59:17;;;;;;;;;;;18.50;49.50;;;;;;4976142;28;20005;-53
2022/03/26 05:01:44;;;;;;;;;;;18.50;49.50;;;;;;4980174;28;20455;-54
2022/03/26 05:04:10;;;;;;;;;;;18.40;49.40;;;;;;4974673;28;20399;-53
2022/03/26 05:06:35;;;;;;;;;;;18.40;49.50;;;;;;4980139;28;20004;-54
2022/03/26 05:09:01;;;;;;;;;;;18.40;49.40;;;;;;4976134;28;19924;-54
2022/03/26 05:11:27;;;;;;;;;;;18.40;49.30;;;;;;4980108;28;19914;-51
2022/03/26 05:13:52;;;;;;;;;;;18.40;49.30;;;;;;4958780;28;19922;-53
2022/03/26 05:16:18;;;;;;;;;;;18.40;49.40;;;;;;4980379;28;19918;-52
2022/03/26 05:18:43;;;;;;;;;;;18.40;49.60;;;;;;4976391;28;19922;-52
2022/03/26 05:21:09;;;;;;;;;;;18.40;49.60;;;;;;4980151;28;19914;-55
2022/03/26 05:23:35;;;;;;;;;;;18.40;49.40;;;;;;4974951;28;19937;-53
2022/03/26 05:26:00;;;;;;;;;;;18.40;49.40;;;;;;4962519;28;19914;-51
2022/03/26 05:28:26;;;;;;;;;;;18.40;49.40;;;;;;4976138;28;19914;-55
2022/03/26 05:30:51;;;;;;;;;;;18.50;49.50;;;;;;4962209;28;19921;-53
2022/03/26 05:33:16;;;;;;;;;;;18.40;49.40;;;;;;4973793;28;20437;-52
2022/03/26 05:35:42;;;;;;;;;;;18.40;49.40;;;;;;4978400;28;19920;-51
2022/03/26 05:38:07;;;;;;;;;;;18.40;49.50;;;;;;4973611;28;19922;-52
2022/03/26 05:40:33;;;;;;;;;;;18.40;49.50;;;;;;4977218;28;19925;-52
2022/03/26 05:42:58;;;;;;;;;;;18.40;49.40;;;;;;4975070;28;19914;-55
2022/03/26 05:45:24;;;;;;;;;;;18.30;49.50;;;;;;4978786;28;19914;-55
2022/03/26 05:47:50;;;;;;;;;;;18.40;49.50;;;;;;4975005;28;19914;-52
2022/03/26 05:50:15;;;;;;;;;;;18.40;49.50;;;;;;4979461;28;19921;-52
2022/03/26 05:52:41;;;;;;;;;;;18.40;49.40;;;;;;4975779;28;19945;-53
2022/03/26 05:55:06;;;;;;;;;;;18.40;49.30;;;;;;4979399;28;20318;-52
2022/03/26 05:57:33;;;;;;;;;;;18.50;49.30;;;;;;4975159;28;20004;-51
2022/03/26 05:59:58;;;;;;;;;;;18.40;49.30;;;;;;4978496;28;19914;-52
2022/03/26 06:02:24;;;;;;;;;;;18.40;49.20;;;;;;4979761;28;19967;-53
2022/03/26 06:04:49;;;;;;;;;;;18.50;49.30;;;;;;4979738;28;20338;-54
2022/03/26 06:07:15;;;;;;;;;;;18.50;49.20;;;;;;4979877;28;19989;-55
2022/03/26 06:09:40;;;;;;;;;;;18.50;49.30;;;;;;4979086;28;19944;-52
2022/03/26 06:12:06;;;;;;;;;;;18.50;49.10;;;;;;4978723;28;19942;-54
2022/03/26 06:14:32;;;;;;;;;;;18.60;49.00;;;;;;4980074;28;19914;-54
2022/03/26 06:16:57;;;;;;;;;;;18.60;49.10;;;;;;4978853;28;20497;-55
2022/03/26 06:19:24;;;;;;;;;;;18.60;49.00;;;;;;4980537;28;19925;-54
2022/03/26 06:21:50;;;;;;;;;;;18.60;48.90;;;;;;4980938;28;19914;-53
2022/03/26 06:24:15;;;;;;;;;;;18.60;48.90;;;;;;4980127;28;19920;-52
2022/03/26 06:26:43;;;;;;;;;;;18.60;49.10;;;;;;4980383;28;19948;-51
2022/03/26 06:29:09;;;;;;;;;;;18.50;49.10;;;;;;4979487;28;19948;-54
2022/03/26 06:31:34;;;;;;;;;;;18.60;49.00;;;;;;4979853;28;19953;-52
2022/03/26 06:34:00;;;;;;;;;;;18.60;49.10;;;;;;4978386;28;20365;-52
2022/03/26 06:36:26;;;;;;;;;;;18.60;49.20;;;;;;4979482;28;19932;-54
2022/03/26 06:38:51;;;;;;;;;;;18.60;49.20;;;;;;4978923;28;19922;-50
2022/03/26 06:41:17;;;;;;;;;;;18.50;49.10;;;;;;4980013;28;19914;-56
2022/03/26 06:43:43;;;;;;;;;;;18.60;49.20;;;;;;4979327;28;19922;-53
2022/03/26 06:46:08;;;;;;;;;;;18.60;49.20;;;;;;4981953;28;19914;-51
2022/03/26 06:48:33;;;;;;;;;;;18.60;49.20;;;;;;4982573;28;19920;-52
2022/03/26 06:51:00;;;;;;;;;;;18.50;49.30;;;;;;4982792;28;19918;-51
2022/03/26 06:53:26;;;;;;;;;;;18.60;49.30;;;;;;4982949;28;19937;-54
2022/03/26 06:55:52;;;;;;;;;;;18.60;49.40;;;;;;4982964;28;20315;-54
2022/03/26 06:58:17;;;;;;;;;;;18.60;49.40;;;;;;4982973;28;19924;-55
2022/03/26 07:00:43;;;;;;;;;;;18.70;49.40;;;;;;4982387;28;19957;-52
2022/03/26 07:03:08;;;;;;;;;;;18.60;49.40;;;;;;4982332;28;20367;-55
2022/03/26 07:05:33;;;;;;;;;;;18.60;49.40;;;;;;4982248;28;19914;-52
2022/03/26 07:07:59;;;;;;;;;;;18.60;49.40;;;;;;4981974;28;20584;-53
2022/03/26 07:10:25;;;;;;;;;;;18.60;49.60;;;;;;4964595;28;19914;-54
2022/03/26 07:12:50;;;;;;;;;;;18.60;49.60;;;;;;4982885;28;19918;-55
2022/03/26 07:15:16;;;;;;;;;;;18.60;49.60;;;;;;4981349;28;19914;-54
2022/03/26 07:17:41;;;;;;;;;;;18.60;50.30;;;;;;4982260;28;19926;-53
2022/03/26 07:20:07;;;;;;;;;;;18.80;50.00;;;;;;4981311;28;20294;-52
2022/03/26 07:22:32;;;;;;;;;;;19.00;49.90;;;;;;4980998;28;20560;-52
2022/03/26 07:24:58;;;;;;;;;;;19.00;49.70;;;;;;4982268;28;19914;-53
2022/03/26 07:27:23;;;;;;;;;;;19.10;49.60;;;;;;4982116;28;19914;-55
2022/03/26 07:29:49;;;;;;;;;;;19.20;49.60;;;;;;4982720;28;19914;-54
2022/03/26 07:32:14;;;;;;;;;;;19.20;49.70;;;;;;4982291;28;19921;-51
2022/03/26 07:34:40;;;;;;;;;;;19.20;50.30;;;;;;4980960;28;19919;-54
2022/03/26 07:37:05;;;;;;;;;;;19.30;50.30;;;;;;4964510;28;19976;-55
2022/03/26 07:39:31;;;;;;;;;;;19.30;50.10;;;;;;4980461;28;19914;-52
2022/03/26 07:41:56;;;;;;;;;;;19.30;50.10;;;;;;4979663;28;20333;-51
2022/03/26 07:44:22;;;;;;;;;;;19.30;50.10;;;;;;4979737;28;19925;-55
2022/03/26 07:46:47;;;;;;;;;;;19.40;50.10;;;;;;4980077;28;19928;-51
2022/03/26 07:49:12;;;;;;;;;;;19.40;50.00;;;;;;4979914;28;19917;-54
2022/03/26 07:51:38;;;;;;;;;;;19.40;50.10;;;;;;4962960;28;19914;-52
2022/03/26 07:54:04;;;;;;;;;;;19.40;50.20;;;;;;4981110;28;20615;-55
2022/03/26 07:56:29;;;;;;;;;;;19.40;50.70;;;;;;4980392;28;19918;-54
2022/03/26 07:58:57;;;;;;;;;;;19.40;51.00;;;;;;4980866;28;19918;-55
2022/03/26 08:01:23;;;;;;;;;;;19.40;51.00;;;;;;4981848;28;19918;-56
2022/03/26 08:03:53;;;;;;;;;;;19.40;51.10;;;;;;4982020;28;20288;-55
2022/03/26 08:06:21;;;;;;;;;;;19.40;51.00;;;;;;4982008;28;20294;-52
2022/03/26 08:08:46;;;;;;;;;;;19.40;50.90;;;;;;4981458;28;19920;-54
2022/03/26 08:11:12;;;;;;;;;;;19.30;50.80;;;;;;4982246;28;22111;-55
2022/03/26 08:13:37;;;;;;;;;;;19.30;50.60;;;;;;4981573;28;20401;-54
2022/03/26 08:16:03;;;;;;;;;;;19.30;50.60;;;;;;4981151;28;19946;-53
2022/03/26 08:18:28;;;;;;;;;;;19.20;50.50;;;;;;4980857;28;20446;-53
2022/03/26 08:20:54;;;;;;;;;;;19.30;50.50;;;;;;4981605;28;20500;-54
2022/03/26 08:23:19;;;;;;;;;;;19.20;50.30;;;;;;4982254;28;19918;-52
2022/03/26 08:28:46;;;;;;;;;;;19.20;50.20;;;;;;4938718;29;20226;-52
2022/03/26 08:31:13;;;;;;;;;;;19.20;50.10;;;;;;4972498;28;19914;-53
2022/03/26 08:33:41;;;;;;;;;;;19.20;50.10;;;;;;4980944;28;19930;-54
2022/03/26 08:36:07;;;;;;;;;;;19.20;50.00;;;;;;4980841;28;20009;-54
2022/03/26 08:38:32;;;;;;;;;;;19.10;50.00;;;;;;4980928;28;20012;-56
2022/03/26 08:40:58;;;;;;;;;;;19.20;50.00;;;;;;4980131;28;20526;-54
2022/03/26 08:43:23;;;;;;;;;;;19.10;49.90;;;;;;4981057;28;20342;-54
2022/03/26 08:45:49;;;;;;;;;;;19.20;49.90;;;;;;4981216;28;19924;-51
2022/03/26 08:48:17;;;;;;;;;;;19.10;49.80;;;;;;4980817;28;19914;-53
2022/03/26 08:50:43;;;;;;;;;;;19.10;49.80;;;;;;4980583;28;20012;-54
2022/03/26 08:53:09;;;;;;;;;;;19.20;49.90;;;;;;4980409;28;19914;-55
2022/03/26 08:55:34;;;;;;;;;;;19.10;49.80;;;;;;4981725;28;19984;-55
2022/03/26 08:58:00;;;;;;;;;;;19.10;49.90;;;;;;4981167;28;19918;-54
2022/03/26 09:00:27;;;;;;;;;;;19.20;49.90;;;;;;4980252;28;19914;-54
2022/03/26 09:02:52;;;;;;;;;;;19.10;49.90;;;;;;4980792;28;20461;-52
2022/03/26 09:05:18;;;;;;;;;;;19.10;49.90;;;;;;4979970;28;22148;-51
2022/03/26 09:07:43;;;;;;;;;;;19.10;49.90;;;;;;4979824;28;19914;-55
2022/03/26 09:10:09;;;;;;;;;;;19.10;49.80;;;;;;4980023;28;19917;-50
2022/03/26 09:12:34;;;;;;;;;;;19.10;50.40;;;;;;4980246;28;19920;-51
2022/03/26 09:15:00;;;;;;;;;;;19.10;51.50;;;;;;4980170;28;19964;-51
2022/03/26 09:17:25;;;;;;;;;;;19.20;52.30;;;;;;4980186;28;19918;-51
2022/03/26 09:19:51;;;;;;;;;;;19.20;52.00;;;;;;4981033;28;19921;-50
2022/03/26 09:22:16;;;;;;;;;;;19.20;51.90;;;;;;4979685;28;20135;-54
2022/03/26 09:24:42;;;;;;;;;;;19.20;52.20;;;;;;4980201;28;19925;-52
2022/03/26 09:27:08;;;;;;;;;;;19.30;51.80;;;;;;4979631;28;19917;-54
2022/03/26 09:29:33;;;;;;;;;;;19.30;52.40;;;;;;4979430;28;20008;-52
2022/03/26 09:31:59;;;;;;;;;;;19.30;51.90;;;;;;4979616;28;19976;-54
2022/03/26 09:34:24;;;;;;;;;;;19.30;51.90;;;;;;4978200;28;19914;-51
2022/03/26 09:36:49;;;;;;;;;;;19.30;51.80;;;;;;4979781;28;20313;-52
2022/03/26 09:39:15;;;;;;;;;;;19.30;51.70;;;;;;4979039;28;19922;-54
2022/03/26 09:41:40;;;;;;;;;;;19.30;51.70;;;;;;4980016;28;19914;-53
2022/03/26 09:44:06;;;;;;;;;;;19.30;51.50;;;;;;4962161;28;19922;-51
2022/03/26 09:46:34;;;;;;;;;;;19.30;51.50;;;;;;4979412;28;20183;-54
2022/03/26 09:48:59;;;;;;;;;;;19.30;51.30;;;;;;4979217;28;19926;-51
2022/03/26 09:51:25;;;;;;;;;;;19.30;51.20;;;;;;4985190;28;19917;-51
2022/03/26 09:53:51;;;;;;;;;;;19.40;51.10;;;;;;4979565;28;19918;-54
2022/03/26 09:56:17;;;;;;;;;;;19.40;51.20;;;;;;4980220;28;19918;-53
2022/03/26 09:58:42;;;;;;;;;;;19.40;51.20;;;;;;4979247;28;19948;-51
2022/03/26 10:01:08;;;;;;;;;;;19.40;51.10;;;;;;4979833;28;19949;-51
2022/03/26 10:03:35;;;;;;;;;;;19.40;50.90;;;;;;4980485;28;19918;-51
2022/03/26 10:06:02;;;;;;;;;;;19.40;50.60;;;;;;4979823;28;19917;-52
2022/03/26 10:08:27;;;;;;;;;;;19.50;50.40;;;;;;4978075;28;20195;-53
2022/03/26 10:10:53;;;;;;;;;;;19.50;50.70;;;;;;4979988;28;20382;-51
2022/03/26 10:13:48;;;;;;;;;;;19.50;50.40;;;;;;4979549;28;19914;-51
2022/03/26 10:16:14;;;;;;;;;;;19.50;50.30;;;;;;4971090;28;19929;-53
2022/03/26 10:18:40;;;;;;;;;;;19.60;50.20;;;;;;4979210;28;19917;-54
2022/03/26 10:21:07;;;;;;;;;;;19.60;50.10;;;;;;4982089;28;19920;-53
2022/03/26 10:23:32;;;;;;;;;;;19.60;50.20;;;;;;4985785;28;19914;-53
2022/03/26 10:26:04;;;;;;;;;;;19.60;50.20;;;;;;4985248;28;19920;-50
2022/03/26 10:28:30;;;;;;;;;;;19.60;50.20;;;;;;4983319;28;20338;-52
2022/03/26 10:34:00;;;;;;;;;;;19.50;50.20;;;;;;4985645;28;19974;-54
2022/03/26 10:36:25;;;;;;;;;;;19.50;49.90;;;;;;4983623;28;20666;-52
2022/03/26 10:38:51;;;;;;;;;;;19.50;49.90;;;;;;4987309;28;20470;-55
2022/03/26 10:41:16;;;;;;;;;;;19.50;49.70;;;;;;4986516;28;19920;-54
2022/03/26 10:43:42;;;;;;;;;;;19.50;49.70;;;;;;4981941;28;19914;-53
2022/03/26 10:46:08;;;;;;;;;;;19.50;49.50;;;;;;4983769;28;19918;-53
2022/03/26 10:48:34;;;;;;;;;;;19.40;49.40;;;;;;4982656;28;19917;-53
2022/03/26 10:51:00;;;;;;;;;;;19.50;49.40;;;;;;4983285;28;19976;-52
2022/03/26 10:53:32;;;;;;;;;;;19.50;49.50;;;;;;4982773;28;19968;-51
2022/03/26 10:55:58;;;;;;;;;;;19.50;49.20;;;;;;4983122;28;19918;-53
2022/03/26 10:58:23;;;;;;;;;;;19.50;49.00;;;;;;4981646;28;20187;-51
2022/03/26 11:00:49;;;;;;;;;;;19.50;49.10;;;;;;4983200;28;19922;-53
2022/03/26 11:03:17;;;;;;;;;;;19.50;49.10;;;;;;4983499;28;19965;-52
2022/03/26 11:05:42;;;;;;;;;;;19.50;49.10;;;;;;4981386;28;20017;-53
2022/03/26 11:08:08;;;;;;;;;;;19.50;49.00;;;;;;4983819;28;19918;-52
2022/03/26 11:10:34;;;;;;;;;;;19.50;49.10;;;;;;4982659;28;19929;-54
2022/03/26 11:13:00;;;;;;;;;;;19.50;48.90;;;;;;4982332;28;19968;-53
2022/03/26 11:15:30;;;;;;;;;;;19.50;48.70;;;;;;4982748;28;20398;-54
2022/03/26 11:17:59;;;;;;;;;;;19.50;48.60;;;;;;4982427;28;19921;-54
2022/03/26 11:20:28;;;;;;;;;;;19.50;48.50;;;;;;4983246;28;20290;-54
2022/03/26 11:22:53;;;;;;;;;;;19.50;49.30;;;;;;4983996;28;19914;-53
2022/03/26 11:25:21;;;;;;;;;;;19.50;48.50;;;;;;4982759;28;20627;-53
2022/03/26 11:27:49;;;;;;;;;;;19.50;48.70;;;;;;4982859;28;19914;-52
2022/03/26 11:30:47;;;;;;;;;;;19.50;48.80;;;;;;4982157;28;19922;-53
2022/03/26 11:33:13;;;;;;;;;;;19.50;48.70;;;;;;4958426;28;19914;-52
2022/03/26 11:38:15;;;;;;;;;;;19.60;48.70;;;;;;5033799;22;19929;-67
2022/03/26 11:40:44;;;;;;;;;;;19.50;48.60;;;;;;5023263;28;20138;-67
2022/03/26 11:43:10;;;;;;;;;;;19.60;48.50;;;;;;5029392;28;19909;-67
2022/03/26 11:51:20;;;;;;;;;;;19.60;48.10;;;;;;5004271;28;19991;-68
2022/03/26 11:53:47;;;;;;;;;;;19.60;47.80;;;;;;5013353;28;19959;-68
2022/03/26 11:56:30;;;;;;;;;;;19.60;47.90;;;;;;5024073;28;20009;-67
2022/03/26 11:59:10;;;;;;;;;;;19.70;47.90;;;;;;5012027;28;19925;-68
2022/03/26 12:01:43;;;;;;;;;;;19.70;47.70;;;;;;5003880;28;20523;-67
2022/03/26 12:04:12;;;;;;;;;;;19.60;47.70;;;;;;5014137;28;19925;-68
2022/03/26 12:06:49;;;;;;;;;;;19.70;47.80;;;;;;5022480;28;20008;-66
2022/03/26 12:09:30;;;;;;;;;;;19.70;48.40;;;;;;5010677;28;24495;-67
2022/03/26 12:12:05;;;;;;;;;;;19.70;49.10;;;;;;5003720;28;19921;-67
2022/03/26 12:14:30;;;;;;;;;;;19.70;49.50;;;;;;5016242;28;20687;-70
2022/03/26 12:16:56;;;;;;;;;;;19.80;49.60;;;;;;4989226;28;20000;-69
2022/03/26 12:19:41;;;;;;;;;;;19.70;49.70;;;;;;5010911;28;19924;-68
2022/03/26 12:22:16;;;;;;;;;;;19.70;49.70;;;;;;5002450;28;19925;-70
2022/03/26 12:24:41;;;;;;;;;;;19.70;49.50;;;;;;5016337;28;19944;-67
2022/03/26 12:27:07;;;;;;;;;;;19.80;49.70;;;;;;5022822;28;20129;-67
2022/03/26 12:29:32;;;;;;;;;;;19.80;49.80;;;;;;4993425;28;19933;-71
2022/03/26 12:31:58;;;;;;;;;;;19.80;49.80;;;;;;4985822;28;19928;-68
2022/03/26 12:34:24;;;;;;;;;;;19.80;49.90;;;;;;5012199;28;19924;-67
2022/03/26 12:36:58;;;;;;;;;;;19.80;50.00;;;;;;5022859;28;19925;-71
2022/03/26 12:39:23;;;;;;;;;;;19.80;50.10;;;;;;4986158;28;20368;-68
2022/03/26 12:41:49;;;;;;;;;;;19.80;50.50;;;;;;5002271;28;19913;-66
2022/03/26 12:44:14;;;;;;;;;;;19.90;50.50;;;;;;5008840;28;20396;-64
2022/03/26 12:46:40;;;;;;;;;;;19.90;50.30;;;;;;5004417;28;19991;-68
2022/03/26 12:49:15;;;;;;;;;;;19.90;50.10;;;;;;5016869;28;19917;-70
2022/03/26 12:51:41;;;;;;;;;;;19.90;49.70;;;;;;5002715;28;20349;-67
2022/03/26 12:54:06;;;;;;;;;;;19.90;49.60;;;;;;5006500;28;19917;-68
2022/03/26 12:56:31;;;;;;;;;;;19.90;49.20;;;;;;5022068;28;19939;-71
2022/03/26 12:58:57;;;;;;;;;;;19.80;48.90;;;;;;5002254;28;19923;-67
2022/03/26 13:01:23;;;;;;;;;;;19.80;48.80;;;;;;4984531;28;20695;-67
2022/03/26 13:03:49;;;;;;;;;;;19.80;48.70;;;;;;5002518;28;19945;-68
2022/03/26 13:06:16;;;;;;;;;;;19.80;48.70;;;;;;5021782;28;19941;-68
2022/03/26 13:08:49;;;;;;;;;;;19.90;48.60;;;;;;5021305;28;19917;-70
2022/03/26 13:11:14;;;;;;;;;;;19.90;48.40;;;;;;4985228;28;19980;-67
2022/03/26 13:13:45;;;;;;;;;;;19.90;48.20;;;;;;5002333;28;19931;-67
2022/03/26 13:16:15;;;;;;;;;;;19.90;48.00;;;;;;5020339;28;19964;-69
2022/03/26 13:18:51;;;;;;;;;;;19.90;47.90;;;;;;5020637;28;19924;-69
2022/03/26 13:21:18;;;;;;;;;;;19.90;47.90;;;;;;4985970;28;19914;-69
2022/03/26 13:23:53;;;;;;;;;;;19.90;47.90;;;;;;5002228;28;19914;-69
2022/03/26 13:26:18;;;;;;;;;;;19.90;47.90;;;;;;5020040;28;19978;-68
2022/03/26 13:28:44;;;;;;;;;;;19.80;47.80;;;;;;5021023;28;19913;-67
2022/03/26 13:31:21;;;;;;;;;;;19.90;47.90;;;;;;5005533;28;19909;-70
2022/03/26 13:33:46;;;;;;;;;;;19.90;47.90;;;;;;4984465;28;19921;-72
2022/03/26 13:36:11;;;;;;;;;;;19.90;47.90;;;;;;4999679;28;20474;-68
2022/03/26 13:38:39;;;;;;;;;;;19.90;47.90;;;;;;5020708;28;19919;-68
2022/03/26 13:41:21;;;;;;;;;;;19.90;47.90;;;;;;4990602;28;19913;-68
2022/03/26 13:43:48;;;;;;;;;;;19.90;47.90;;;;;;5001849;28;20000;-68
2022/03/26 13:46:13;;;;;;;;;;;19.90;47.80;;;;;;5002045;28;20068;-71
2022/03/26 13:48:52;;;;;;;;;;;19.90;48.40;;;;;;4983522;28;20436;-71
2022/03/26 13:51:27;;;;;;;;;;;19.90;47.70;;;;;;4998255;28;20304;-68
2022/03/26 13:53:53;;;;;;;;;;;20.00;47.70;;;;;;5021260;28;19939;-68
2022/03/26 13:56:18;;;;;;;;;;;20.00;47.70;;;;;;5006688;28;19913;-68
2022/03/26 13:58:49;;;;;;;;;;;19.90;47.60;;;;;;4982993;28;19917;-68
2022/03/26 14:01:15;;;;;;;;;;;20.00;47.60;;;;;;5014467;28;19913;-71
2022/03/26 14:03:40;;;;;;;;;;;20.00;47.70;;;;;;5003768;28;20390;-69
2022/03/26 14:06:06;;;;;;;;;;;20.00;47.90;;;;;;5010647;28;19914;-69
2022/03/26 14:08:31;;;;;;;;;;;20.00;48.10;;;;;;5001350;28;20452;-67
2022/03/26 14:10:57;;;;;;;;;;;20.00;48.30;;;;;;5010810;28;20543;-70
2022/03/26 14:13:22;;;;;;;;;;;20.00;48.20;;;;;;5022154;28;19913;-67
2022/03/26 14:15:51;;;;;;;;;;;20.00;48.00;;;;;;5014336;28;19924;-70
2022/03/26 14:18:18;;;;;;;;;;;20.00;47.90;;;;;;4984222;28;19952;-67
2022/03/26 14:20:44;;;;;;;;;;;20.00;47.90;;;;;;5006628;28;19999;-69
2022/03/26 14:23:10;;;;;;;;;;;20.00;48.10;;;;;;4987324;28;20545;-67
2022/03/26 14:25:36;;;;;;;;;;;20.00;48.20;;;;;;5016962;28;19921;-69